Time;durP1;ratioP1;P1;durP2;ratioP2;P2;SDS_P1;SDS_P2;PMS_P1;PMS_P2;Temp;Humidity;BMP_temperature;BMP_pressure;BME280_temperature;BME280_humidity;BME280_pressure;Samples;Min_cycle;Max_cycle;Signal;HPM_P1;HPM_P2
2022/08/22 00:02:28;;;;;;;7.95;4.00;;;;;;;-148.88;85.15;75308.03;5001880;28;20018;-84
2022/08/22 00:05:05;;;;;;;8.38;4.35;;;;;;;-148.88;85.21;75297.88;5003896;28;20022;-85
2022/08/22 00:08:09;;;;;;;7.20;4.60;;;;;;;-148.88;84.83;75301.94;5004159;28;20493;-85
2022/08/22 00:10:58;;;;;;;7.00;4.00;;;;;;;-148.88;84.58;75297.88;4995074;28;20061;-85
2022/08/22 00:13:37;;;;;;;9.15;4.60;;;;;;;-148.88;84.51;75301.94;5003279;28;20045;-85
2022/08/22 00:16:21;;;;;;;9.27;4.15;;;;;;;-148.88;86.02;75322.25;5005010;28;20366;-85
2022/08/22 00:18:53;;;;;;;8.13;4.20;;;;;;;-148.88;87.09;75332.41;5003556;28;20027;-85
2022/08/22 00:21:31;;;;;;;8.98;4.60;;;;;;;-148.88;87.73;75346.63;5004105;28;20042;-84
2022/08/22 00:24:29;;;;;;;8.38;4.60;;;;;;;-148.88;89.29;75362.88;5004975;28;20018;-85
2022/08/22 00:27:03;;;;;;;8.60;4.88;;;;;;;-148.88;89.87;75364.91;5004433;28;20026;-85
2022/08/22 00:29:53;;;;;;;9.07;5.07;;;;;;;-148.88;90.31;75371.00;5002982;28;20022;-85
2022/08/22 00:32:34;;;;;;;9.88;4.90;;;;;;;-148.88;90.90;75387.25;5002571;28;20026;-85
2022/08/22 00:35:13;;;;;;;10.32;5.00;;;;;;;-148.88;91.08;75391.31;4999439;28;20033;-84
2022/08/22 00:37:46;;;;;;;12.65;5.10;;;;;;;-148.88;90.90;75387.25;4998124;28;20027;-84
2022/08/22 00:40:30;;;;;;;10.40;5.07;;;;;;;-148.88;91.72;75387.25;5000642;28;20077;-85
2022/08/22 00:43:35;;;;;;;11.05;5.40;;;;;;;-148.88;92.41;75391.31;5000392;28;20050;-84
2022/08/22 00:46:22;;;;;;;13.48;5.68;;;;;;;-148.88;92.63;75395.38;4984022;28;20034;-82
2022/08/22 00:49:09;;;;;;;10.48;5.05;;;;;;;-148.88;93.06;75399.44;5000499;28;20117;-84
2022/08/22 00:52:00;;;;;;;7.97;5.43;;;;;;;-148.88;93.18;75407.56;5002040;28;20022;-84
2022/08/22 00:54:49;;;;;;;11.13;5.35;;;;;;;-148.88;93.72;75421.78;5001799;28;20080;-85
2022/08/22 00:57:37;;;;;;;12.77;5.90;;;;;;;-148.88;94.47;75427.88;5003150;28;20027;-85
2022/08/22 01:00:14;;;;;;;13.15;5.85;;;;;;;-148.88;94.97;75438.03;5002668;28;20022;-85
2022/08/22 01:03:04;;;;;;;11.23;5.97;;;;;;;-148.88;95.26;75433.97;5002495;28;20370;-85
2022/08/22 01:06:14;;;;;;;11.05;5.40;;;;;;;-148.88;95.38;75417.72;5002513;28;20041;-84
2022/08/22 01:09:10;;;;;;;6.82;5.50;;;;;;;-148.88;95.35;75423.81;5000927;28;20022;-85
2022/08/22 01:11:58;;;;;;;11.82;5.80;;;;;;;-148.88;95.73;75427.88;5000558;28;20074;-84
2022/08/22 01:14:52;;;;;;;11.77;6.47;;;;;;;-148.88;96.38;75427.88;4996141;28;20088;-84
2022/08/22 01:17:33;;;;;;;10.15;7.00;;;;;;;-148.88;96.42;75425.84;4998816;28;20030;-85
2022/08/22 01:20:31;;;;;;;12.25;5.82;;;;;;;-148.88;95.70;75415.69;5000340;28;20121;-83
2022/08/22 01:23:05;;;;;;;11.18;6.47;;;;;;;-148.88;95.26;75415.69;5000132;28;20026;-84
2022/08/22 01:26:06;;;;;;;10.50;6.10;;;;;;;-148.88;94.84;75405.53;5000080;28;20026;-84
2022/08/22 01:28:52;;;;;;;13.48;6.18;;;;;;;-148.88;95.01;75405.53;5002478;28;20026;-85
2022/08/22 01:31:23;;;;;;;10.85;6.28;;;;;;;-148.88;94.77;75423.81;5002652;28;20061;-84
2022/08/22 01:34:24;;;;;;;15.13;6.15;;;;;;;-148.88;95.30;75419.75;5001666;28;20106;-84
2022/08/22 01:37:20;;;;;;;13.52;6.88;;;;;;;-148.88;96.11;75431.94;5002921;28;20030;-84
2022/08/22 01:40:06;;;;;;;14.90;7.43;;;;;;;-148.88;96.99;75440.06;5000670;28;20026;-84
2022/08/22 01:43:04;;;;;;;19.30;7.90;;;;;;;-148.88;97.63;75458.34;5000396;28;20033;-84
2022/08/22 01:46:03;;;;;;;14.88;7.60;;;;;;;-148.88;97.75;75448.19;5002146;28;20080;-85
2022/08/22 01:48:40;;;;;;;11.13;7.05;;;;;;;-148.88;97.63;75440.06;5001032;28;20231;-85
2022/08/22 01:51:39;;;;;;;14.75;7.80;;;;;;;-148.88;96.64;75429.91;5000550;28;20037;-84
2022/08/22 01:54:19;;;;;;;13.63;7.10;;;;;;;-148.88;96.74;75446.16;4972685;28;20038;-84
2022/08/22 01:56:46;;;;;;;12.77;7.13;;;;;;;-148.88;97.30;75452.25;4997904;28;20026;-83
2022/08/22 01:59:33;;;;;;;12.32;7.55;;;;;;;-148.88;98.17;75468.50;4998994;28;20026;-83
2022/08/22 02:02:13;;;;;;;12.80;7.30;;;;;;;-148.88;98.95;75470.53;4998007;28;20018;-85
2022/08/22 02:05:03;;;;;;;15.48;8.68;;;;;;;-148.88;99.08;75476.63;4999305;28;20050;-84
2022/08/22 02:07:58;;;;;;;12.30;8.38;;;;;;;-148.88;99.47;75480.69;4999723;28;20137;-85
2022/08/22 02:10:51;;;;;;;22.08;8.80;;;;;;;-148.88;99.46;75486.78;4999556;28;20378;-83
2022/08/22 02:13:35;;;;;;;13.45;8.20;;;;;;;-148.88;99.84;75486.78;5000342;28;20074;-84
2022/08/22 02:16:07;;;;;;;;;;;;;;;-148.88;99.80;75488.81;5000322;28;20029;-83
2022/08/22 02:18:49;;;;;;;14.13;7.65;;;;;;;-148.88;99.91;75484.75;5000386;28;19910;-84
2022/08/22 02:21:21;;;;;;;9.93;7.85;;;;;;;-148.88;99.40;75468.50;4999060;28;20032;-83
2022/08/22 02:23:57;;;;;;;14.90;8.40;;;;;;;-148.88;98.45;75474.59;4998766;28;20492;-83
2022/08/22 02:26:50;;;;;;;15.52;7.93;;;;;;;-148.88;98.58;75464.44;4998447;28;20031;-84
2022/08/22 02:29:22;;;;;;;15.65;8.23;;;;;;;-148.88;98.24;75472.56;5000293;28;20077;-84
2022/08/22 02:31:56;;;;;;;14.65;8.30;;;;;;;-148.88;98.72;75482.72;4996137;28;20049;-84
2022/08/22 02:34:41;;;;;;;13.70;8.90;;;;;;;-148.88;99.30;75482.72;4997244;28;20042;-84
2022/08/22 02:37:20;;;;;;;13.32;8.85;;;;;;;-148.88;98.87;75490.84;4997197;28;20090;-84
2022/08/22 02:40:06;;;;;;;15.52;8.98;;;;;;;-148.88;99.47;75488.81;4998157;28;20069;-83
2022/08/22 02:42:57;;;;;;;15.48;8.85;;;;;;;-148.88;99.57;75494.91;4997321;28;20022;-84
2022/08/22 02:45:44;;;;;;;13.50;8.45;;;;;;;-148.88;99.57;75484.75;5000610;28;20045;-84
2022/08/22 02:48:25;;;;;;;13.13;8.52;;;;;;;-148.88;98.34;75496.94;5001486;28;20031;-84
2022/08/22 02:51:08;;;;;;;14.90;8.95;;;;;;;-148.88;99.45;75509.13;5001112;28;20487;-84
2022/08/22 02:53:48;;;;;;;15.33;9.07;;;;;;;-148.88;100.00;75513.19;5001575;28;20129;-84
2022/08/22 02:56:22;;;;;;;13.65;9.20;;;;;;;-148.88;100.00;75521.31;5001395;28;20283;-84
2022/08/22 02:58:52;;;;;;;;;;;;;;;-148.88;100.00;75529.44;5002400;28;20416;-84
2022/08/22 03:01:24;;;;;;;16.60;10.38;;;;;;;-148.88;100.00;75525.38;5002080;28;19910;-85
2022/08/22 03:03:51;;;;;;;18.38;11.35;;;;;;;-148.88;100.00;75531.47;5002919;28;20487;-84
2022/08/22 03:06:35;;;;;;;16.35;10.25;;;;;;;-148.88;100.00;75525.38;5004237;28;20022;-84
2022/08/22 03:09:18;;;;;;;15.88;9.95;;;;;;;-148.88;100.00;75543.66;5002947;28;20037;-83
2022/08/22 03:11:49;;;;;;;16.70;11.30;;;;;;;-148.88;100.00;75555.84;4998381;28;20030;-82
2022/08/22 03:14:27;;;;;;;18.80;11.30;;;;;;;-148.88;100.00;75559.91;5000290;28;20038;-83
2022/08/22 03:17:12;;;;;;;18.17;11.15;;;;;;;-148.88;100.00;75578.19;5001668;28;20499;-84
2022/08/22 03:19:59;;;;;;;14.75;10.85;;;;;;;-148.88;100.00;75568.03;5002042;28;20034;-84
2022/08/22 03:22:35;;;;;;;17.50;11.63;;;;;;;-148.88;100.00;75566.00;5000683;28;20033;-84
2022/08/22 03:25:29;;;;;;;21.10;11.82;;;;;;;-148.88;100.00;75553.81;5002494;28;20022;-84
2022/08/22 03:28:06;;;;;;;20.73;12.07;;;;;;;-148.88;100.00;75553.81;5002219;28;20049;-84
2022/08/22 03:30:34;;;;;;;18.92;11.52;;;;;;;-148.88;100.00;75541.63;5002844;28;20049;-84
2022/08/22 03:33:17;;;;;;;18.60;10.85;;;;;;;-148.88;100.00;75543.66;5002058;28;20088;-85
2022/08/22 03:35:43;;;;;;;19.07;10.83;;;;;;;-148.88;100.00;75549.75;4999161;28;20026;-84
2022/08/22 03:38:31;;;;;;;17.60;10.00;;;;;;;-148.88;100.00;75549.75;5003913;28;20421;-84
2022/08/22 03:41:07;;;;;;;17.05;10.75;;;;;;;-148.88;100.00;75559.91;5005630;28;20271;-84
2022/08/22 03:43:56;;;;;;;17.80;11.35;;;;;;;-148.88;100.00;75563.97;5003789;28;20064;-85
2022/08/22 03:46:59;;;;;;;15.00;11.63;;;;;;;-148.88;100.00;75561.94;5003598;28;20556;-84
2022/08/22 03:49:46;;;;;;;19.55;11.18;;;;;;;-148.88;100.00;75561.94;5004459;28;20374;-84
2022/08/22 03:53:06;;;;;;;18.95;12.00;;;;;;;-148.88;100.00;75559.91;5000872;28;20072;-84
2022/08/22 03:56:07;;;;;;;17.35;12.00;;;;;;;-148.88;100.00;75561.94;4999222;28;20050;-85
2022/08/22 03:58:53;;;;;;;20.38;11.68;;;;;;;-148.88;100.00;75568.03;5000366;28;20385;-83
2022/08/22 04:02:04;;;;;;;20.80;12.02;;;;;;;-148.88;100.00;75572.09;5001700;28;20567;-85
2022/08/22 04:04:50;;;;;;;18.95;12.85;;;;;;;-148.88;100.00;75574.13;4923473;29;20024;-84
2022/08/22 04:07:34;;;;;;;16.52;11.80;;;;;;;-148.88;100.00;75572.09;4907986;29;20032;-84
2022/08/22 04:10:29;;;;;;;17.75;10.85;;;;;;;-148.88;100.00;75582.22;4980343;28;20038;-84
2022/08/22 04:13:01;;;;;;;17.80;11.55;;;;;;;-148.88;100.00;75586.31;5002183;28;20034;-85
2022/08/22 04:15:42;;;;;;;18.83;12.45;;;;;;;-148.88;100.00;75592.38;5001924;28;20531;-85
2022/08/22 04:18:40;;;;;;;19.08;11.05;;;;;;;-148.88;100.00;75578.19;5002683;28;20030;-85
2022/08/22 04:21:23;;;;;;;18.13;11.43;;;;;;;-148.88;100.00;75582.22;4994113;28;20062;-85
2022/08/22 04:23:58;;;;;;;17.50;11.48;;;;;;;-148.88;100.00;75586.31;5001037;28;20019;-84
2022/08/22 04:26:40;;;;;;;15.98;10.77;;;;;;;-148.88;100.00;75586.31;4998872;28;20037;-84
2022/08/22 04:29:16;;;;;;;14.73;11.27;;;;;;;-148.88;100.00;75592.38;4998087;28;20373;-84
2022/08/22 04:32:08;;;;;;;17.15;11.00;;;;;;;-148.88;100.00;75588.34;4998436;28;20477;-80
2022/08/22 04:34:38;;;;;;;20.80;11.95;;;;;;;-148.88;100.00;75594.44;4999793;28;20058;-85
2022/08/22 04:37:43;;;;;;;17.60;11.75;;;;;;;-148.88;100.00;75586.31;4997378;28;20026;-85
2022/08/22 04:40:25;;;;;;;19.65;11.80;;;;;;;-148.88;100.00;75576.13;5000324;28;20034;-86
2022/08/22 04:43:07;;;;;;;18.27;11.75;;;;;;;-148.88;100.00;75576.13;5001728;28;20038;-84
2022/08/22 04:45:42;;;;;;;17.30;10.43;;;;;;;-148.88;100.00;75568.03;5001962;28;20055;-85
2022/08/22 04:48:19;;;;;;;16.65;10.85;;;;;;;-148.88;100.00;75566.00;5001377;28;20064;-86
2022/08/22 04:50:59;;;;;;;14.43;10.32;;;;;;;-148.88;100.00;75559.91;4998623;28;20121;-86
2022/08/22 04:53:58;;;;;;;16.23;11.20;;;;;;;-148.88;100.00;75557.88;4998525;28;20073;-86
2022/08/22 04:56:45;;;;;;;15.15;10.18;;;;;;;-148.88;100.00;75553.81;4996990;28;20026;-86
2022/08/22 04:59:15;;;;;;;15.63;10.25;;;;;;;-148.88;100.00;75549.75;4994643;28;20026;-86
2022/08/22 05:01:55;;;;;;;12.45;10.13;;;;;;;-148.88;100.00;75545.69;4995318;28;20026;-85
2022/08/22 05:04:55;;;;;;;15.38;10.15;;;;;;;-148.88;100.00;75545.69;4994929;28;20069;-85
2022/08/22 05:07:35;;;;;;;18.30;10.35;;;;;;;-148.88;100.00;75557.88;4996024;28;20049;-85
2022/08/22 05:10:55;;;;;;;18.48;11.70;;;;;;;-148.88;100.00;75549.75;4994949;28;20073;-87
2022/08/22 05:13:46;;;;;;;21.38;12.02;;;;;;;-148.88;100.00;75553.81;4993303;28;20046;-87
2022/08/22 05:16:36;;;;;;;17.52;11.65;;;;;;;-148.88;100.00;75535.53;4985643;28;20042;-87
2022/08/22 05:45:57;;;;;;;19.83;12.27;;;;;;;-148.88;100.00;75492.88;5015060;28;20077;-80
2022/08/22 05:48:38;;;;;;;18.02;11.80;;;;;;;-148.88;100.00;75476.63;5017160;28;20022;-80
2022/08/22 05:51:15;;;;;;;17.33;12.25;;;;;;;-148.88;100.00;75484.75;5015298;28;20525;-76
2022/08/22 05:53:54;;;;;;;18.48;12.45;;;;;;;-148.88;100.00;75492.88;5014751;28;20025;-77
2022/08/22 05:56:36;;;;;;;20.13;12.32;;;;;;;-148.88;100.00;75507.09;5013396;28;20092;-76
2022/08/22 05:59:15;;;;;;;15.52;12.65;;;;;;;-148.88;100.00;75519.28;5015418;28;20028;-77
2022/08/22 06:01:53;;;;;;;19.45;12.82;;;;;;;-148.88;100.00;75527.41;5014944;28;20487;-78
2022/08/22 06:04:34;;;;;;;17.17;11.50;;;;;;;-148.88;100.00;75515.22;5017186;28;20029;-78
2022/08/22 06:07:19;;;;;;;17.92;13.30;;;;;;;-148.88;100.00;75519.28;5017807;28;20055;-78
2022/08/22 06:09:47;;;;;;;18.00;13.50;;;;;;;-148.88;100.00;75513.19;5017521;28;20413;-77
2022/08/22 06:12:25;;;;;;;17.92;13.95;;;;;;;-148.88;100.00;75521.31;5017655;28;20087;-80
2022/08/22 06:15:03;;;;;;;21.08;14.27;;;;;;;-148.88;100.00;75525.38;5015418;28;20076;-78
2022/08/22 06:17:36;;;;;;;20.20;13.10;;;;;;;-148.88;100.00;75517.25;5016907;28;20117;-79
2022/08/22 06:20:06;;;;;;;19.17;13.65;;;;;;;-148.88;100.00;75521.31;5016176;28;20029;-78
2022/08/22 06:22:42;;;;;;;16.67;13.27;;;;;;;-148.88;100.00;75503.03;5019840;28;20040;-78
2022/08/22 06:25:14;;;;;;;17.15;14.38;;;;;;;-148.88;100.00;75480.69;5018738;28;20444;-81
2022/08/22 06:27:41;;;;;;;23.13;14.45;;;;;;;-148.88;100.00;75472.56;5018495;28;20025;-78
2022/08/22 06:30:11;;;;;;;21.05;13.05;;;;;;;-148.88;100.00;75464.44;5019704;28;20022;-78
2022/08/22 06:32:41;;;;;;;17.30;13.15;;;;;;;-148.88;100.00;75462.41;5020236;28;20092;-80
2022/08/22 06:35:20;;;;;;;18.38;13.30;;;;;;;-148.88;100.00;75448.19;5018808;28;20018;-80
2022/08/22 06:37:48;;;;;;;15.63;12.55;;;;;;;-148.88;100.00;75431.94;5017800;28;20018;-77
2022/08/22 06:40:16;;;;;;;17.20;11.80;;;;;;;-148.88;100.00;75415.69;5018592;28;20022;-78
2022/08/22 06:42:46;;;;;;;16.33;11.60;;;;;;;-148.88;100.00;75403.50;5020282;28;20117;-80
2022/08/22 06:45:18;;;;;;;15.93;11.38;;;;;;;-148.88;100.00;75395.38;5020311;28;20088;-80
2022/08/22 06:47:50;;;;;;;16.33;11.10;;;;;;;-148.88;100.00;75383.19;5020049;28;20034;-78
2022/08/22 06:50:29;;;;;;;16.77;11.07;;;;;;;-148.88;99.60;75373.03;5017387;28;20022;-77
2022/08/22 06:52:55;;;;;;;17.75;11.20;;;;;;;-148.88;98.90;75364.91;5020405;28;20526;-78
2022/08/22 06:55:22;;;;;;;18.47;10.93;;;;;;;-148.88;98.70;75354.75;5020077;28;20034;-78
2022/08/22 06:58:12;;;;;;;15.15;11.23;;;;;;;-148.88;97.53;75348.66;5019348;28;20263;-80
2022/08/22 07:00:41;;;;;;;15.88;10.55;;;;;;;-148.88;97.56;75330.38;5020225;28;20057;-80
2022/08/22 07:03:15;;;;;;;19.13;10.52;;;;;;;-148.88;96.64;75326.31;5019194;28;20036;-78
2022/08/22 07:05:42;;;;;;;16.92;11.07;;;;;;;-148.88;96.86;75318.19;5020515;28;20375;-79
2022/08/22 07:08:12;;;;;;;16.52;10.60;;;;;;;-148.88;96.63;75303.97;5018851;28;20018;-78
2022/08/22 07:10:43;;;;;;;20.70;10.50;;;;;;;-148.88;96.12;75297.88;5020183;28;20152;-80
2022/08/22 07:13:14;;;;;;;20.70;10.75;;;;;;;-148.88;94.61;75295.84;5018214;28;20031;-80
2022/08/22 07:15:42;;;;;;;19.10;10.35;;;;;;;-148.88;94.16;75289.75;5017840;28;20026;-79
2022/08/22 07:18:17;;;;;;;16.13;10.20;;;;;;;-148.88;94.11;75277.59;5017889;28;20034;-77
2022/08/22 07:20:48;;;;;;;17.88;11.18;;;;;;;-148.88;94.51;75267.44;5018301;28;20026;-78
2022/08/22 07:23:31;;;;;;;15.60;10.48;;;;;;;-148.88;93.87;75253.22;5019682;28;20018;-77
2022/08/22 07:26:12;;;;;;;20.88;10.85;;;;;;;-148.88;93.21;75247.13;5018242;28;20026;-77
2022/08/22 07:28:48;;;;;;;15.75;10.00;;;;;;;-148.88;93.33;75226.81;5017001;28;20112;-77
2022/08/22 07:31:41;;;;;;;18.20;11.05;;;;;;;-148.88;92.53;75220.72;5016728;28;20017;-78
2022/08/22 07:34:48;;;;;;;13.38;9.52;;;;;;;-148.88;91.76;75208.53;5020789;28;20026;-77
2022/08/22 07:37:29;;;;;;;13.32;9.40;;;;;;;-148.88;91.49;75196.34;4981738;28;20084;-78
2022/08/22 07:40:20;;;;;;;15.90;9.68;;;;;;;-148.88;91.11;75194.31;5020093;28;20029;-79
2022/08/22 07:42:48;;;;;;;14.80;9.20;;;;;;;-148.88;91.02;75188.22;5019596;28;20026;-79
2022/08/22 07:45:32;;;;;;;15.35;9.38;;;;;;;-148.88;90.11;75167.91;5021384;28;20037;-78
2022/08/22 07:48:04;;;;;;;;;;;;;;;-148.88;90.29;75149.63;5019659;28;20021;-80
2022/08/22 07:50:35;;;;;;;16.63;9.32;;;;;;;-148.88;88.48;75135.41;5018127;28;19917;-78
2022/08/22 07:53:12;;;;;;;14.60;8.40;;;;;;;-148.88;88.80;75121.19;5019260;28;20471;-77
2022/08/22 07:55:39;;;;;;;15.00;8.93;;;;;;;-148.88;87.45;75106.97;5016994;28;20026;-76
2022/08/22 07:58:06;;;;;;;13.90;8.07;;;;;;;-148.88;87.73;75096.81;5016497;28;20497;-77
2022/08/22 08:00:33;;;;;;;19.70;8.90;;;;;;;-148.88;87.18;75082.63;5019338;28;20025;-78
2022/08/22 08:03:04;;;;;;;10.57;7.80;;;;;;;-148.88;86.82;75062.31;5020246;28;20053;-78
2022/08/22 08:05:34;;;;;;;16.90;8.40;;;;;;;-148.88;85.44;75050.13;5019096;28;20021;-80
2022/08/22 08:08:11;;;;;;;19.95;8.45;;;;;;;-148.88;85.70;75033.88;5017653;28;20064;-79
2022/08/22 08:10:38;;;;;;;15.20;7.72;;;;;;;-148.88;85.45;75025.75;5018930;28;20492;-78
2022/08/22 08:13:18;;;;;;;12.55;7.60;;;;;;;-148.88;83.72;75013.56;5018099;28;20025;-77
2022/08/22 08:15:44;;;;;;;13.88;7.63;;;;;;;-148.88;81.10;74997.31;5016184;28;20025;-77
2022/08/22 08:18:18;;;;;;;11.23;6.57;;;;;;;-148.88;80.92;74985.13;5014448;28;20034;-77
2022/08/22 08:20:47;;;;;;;9.25;6.95;;;;;;;-148.88;78.97;74968.88;5017439;28;20030;-77
2022/08/22 08:23:18;;;;;;;12.07;7.15;;;;;;;-148.88;80.11;74950.59;5020228;28;20057;-78
2022/08/22 08:25:58;;;;;;;13.88;6.93;;;;;;;-148.88;77.44;74936.41;5020317;28;20443;-79
2022/08/22 08:28:33;;;;;;;10.73;7.05;;;;;;;-148.88;78.31;74936.41;5018744;28;20030;-78
2022/08/22 08:31:07;;;;;;;12.57;6.57;;;;;;;-148.88;77.29;74922.19;5018014;28;20021;-78
2022/08/22 08:33:35;;;;;;;12.70;5.85;;;;;;;-148.88;78.10;74899.84;5018080;28;20025;-78
2022/08/22 08:36:25;;;;;;;9.57;6.15;;;;;;;-148.88;76.49;74887.66;5017701;28;20037;-76
2022/08/22 08:39:01;;;;;;;11.00;6.40;;;;;;;-148.88;76.57;74859.22;5016612;28;20033;-77
2022/08/22 08:41:45;;;;;;;10.40;6.07;;;;;;;-148.88;74.16;74836.88;5016758;28;20060;-78
2022/08/22 08:44:34;;;;;;;9.52;5.50;;;;;;;-148.88;70.58;74814.53;5017118;28;20046;-77
2022/08/22 08:47:14;;;;;;;8.48;4.97;;;;;;;-148.88;70.07;74796.28;5015562;28;20022;-77
2022/08/22 08:50:12;;;;;;;9.80;5.32;;;;;;;-148.88;66.83;74782.06;5015214;28;20072;-77
2022/08/22 08:53:05;;;;;;;8.70;4.30;;;;;;;-148.88;65.93;74755.66;5015162;28;20029;-77
2022/08/22 08:55:46;;;;;;;10.20;4.57;;;;;;;-148.88;66.43;74721.13;5013697;28;20033;-78
2022/08/22 08:58:31;;;;;;;7.05;3.92;;;;;;;-148.88;65.66;74704.88;5020873;28;20026;-78
2022/08/22 09:00:59;;;;;;;11.27;3.97;;;;;;;-148.88;65.01;74692.72;5021030;28;20387;-78
2022/08/22 09:03:58;;;;;;;9.57;3.95;;;;;;;-148.88;61.42;74668.34;5019307;28;20475;-78
2022/08/22 09:06:53;;;;;;;7.72;3.95;;;;;;;-148.88;60.98;74656.16;5018073;28;20029;-81
2022/08/22 09:09:37;;;;;;;6.32;3.78;;;;;;;-148.88;61.52;74639.91;5016331;28;20026;-78
2022/08/22 09:12:12;;;;;;;12.20;3.97;;;;;;;-148.88;60.86;74607.41;5016196;28;20029;-77
2022/08/22 09:14:56;;;;;;;8.02;3.78;;;;;;;-148.88;60.84;74574.94;5014849;28;20038;-78
2022/08/22 09:17:57;;;;;;;5.13;3.40;;;;;;;-148.88;57.25;74548.53;5016563;28;20065;-78
2022/08/22 09:20:46;;;;;;;7.97;3.75;;;;;;;-148.88;57.03;74538.38;5017021;28;20542;-78
2022/08/22 09:23:33;;;;;;;7.93;3.38;;;;;;;-148.88;58.42;74497.78;5017271;28;20057;-78
2022/08/22 09:26:04;;;;;;;6.45;3.08;;;;;;;-148.88;54.78;74481.53;5017345;28;20384;-78
2022/08/22 09:28:37;;;;;;;9.63;3.15;;;;;;;-148.88;54.83;74436.84;5016279;28;20022;-77
2022/08/22 09:31:33;;;;;;;7.38;3.08;;;;;;;-148.88;53.11;74406.41;5012946;28;20030;-77
2022/08/22 09:34:11;;;;;;;7.28;3.10;;;;;;;-148.88;54.27;74357.66;5014814;28;20026;-78
2022/08/22 09:37:00;;;;;;;7.63;2.65;;;;;;;-148.88;48.34;74333.28;5017763;28;20025;-77
2022/08/22 09:39:34;;;;;;;5.28;2.20;;;;;;;-148.88;48.56;74306.91;5014326;28;20031;-76
2022/08/22 09:42:08;;;;;;;5.22;2.70;;;;;;;-148.88;49.29;74300.81;5017629;28;20117;-81
2022/08/22 09:44:52;;;;;;;8.35;2.97;;;;;;;-148.88;47.54;74266.28;5016705;28;20034;-79
2022/08/22 09:47:30;;;;;;;6.25;2.30;;;;;;;-148.88;48.65;74237.88;5018498;28;20051;-78
2022/08/22 09:50:19;;;;;;;5.30;2.50;;;;;;;-148.88;48.07;74221.63;5017178;28;20037;-78
2022/08/22 09:53:12;;;;;;;6.25;2.38;;;;;;;-148.88;46.97;74174.91;5013478;28;20022;-77
2022/08/22 09:55:54;;;;;;;5.63;2.30;;;;;;;-148.88;45.77;74128.22;5015745;28;20030;-78
2022/08/22 09:58:31;;;;;;;5.57;2.50;;;;;;;-148.88;45.23;74107.91;5017319;28;20029;-79
2022/08/22 10:01:07;;;;;;;4.05;2.20;;;;;;;-148.88;45.58;74093.72;5018455;28;20018;-78
2022/08/22 10:03:44;;;;;;;6.65;2.53;;;;;;;-148.88;44.22;74116.03;5018055;28;20021;-78
2022/08/22 10:06:19;;;;;;;13.73;2.95;;;;;;;-148.88;45.10;74095.72;5018666;28;20049;-78
2022/08/22 10:08:59;;;;;;;5.65;2.22;;;;;;;-148.88;44.08;74071.38;5019256;28;20045;-78
2022/08/22 10:11:38;;;;;;;6.00;2.00;;;;;;;-148.88;43.61;74032.78;5015315;28;20028;-77
2022/08/22 10:14:12;;;;;;;5.85;2.00;;;;;;;-148.88;40.43;74034.81;5013465;28;20057;-80
2022/08/22 10:17:10;;;;;;;3.97;1.60;;;;;;;-148.88;42.26;73986.09;5016691;28;20495;-80
2022/08/22 10:19:38;;;;;;;4.22;1.63;;;;;;;-148.88;37.45;74006.41;5017225;28;20076;-81
2022/08/22 10:22:34;;;;;;;2.58;1.40;;;;;;;-148.88;38.10;73957.69;5017158;28;20084;-80
2022/08/22 10:25:23;;;;;;;5.15;1.50;;;;;;;-148.88;38.53;73894.75;5019392;28;20101;-78
2022/08/22 10:27:52;;;;;;;5.20;1.85;;;;;;;-148.88;39.17;73856.16;5018318;28;20022;-79
2022/08/22 10:33:39;;;;;;;3.42;1.40;;;;;;;-148.88;36.03;73799.31;4978026;28;20077;-79
2022/08/22 10:36:09;;;;;;;4.72;1.55;;;;;;;-148.88;36.56;73795.25;4952232;28;20039;-79
2022/08/22 10:38:45;;;;;;;4.45;1.33;;;;;;;-148.88;34.50;73848.03;4979024;28;20050;-80
2022/08/22 10:41:31;;;;;;;3.60;1.45;;;;;;;-148.88;33.95;73821.66;4978730;28;20023;-80
2022/08/22 10:44:02;;;;;;;3.15;1.10;;;;;;;-148.88;33.89;73807.44;5002550;23;20061;-87
2022/08/22 10:46:34;;;;;;;4.60;1.42;;;;;;;-148.88;34.19;73862.25;4976394;28;20046;-87
2022/08/22 10:49:03;;;;;;;3.65;1.52;;;;;;;-148.88;35.09;73888.66;4992251;28;20022;-87
2022/08/22 10:51:42;;;;;;;3.22;1.60;;;;;;;-148.88;35.02;74006.41;4992475;28;20026;-87
2022/08/22 10:54:24;;;;;;;6.22;1.60;;;;;;;-148.88;36.84;74034.81;4992813;28;20027;-87
2022/08/22 10:57:04;;;;;;;4.47;1.63;;;;;;;-148.88;36.49;74030.75;4992387;28;20044;-87
2022/08/22 10:59:43;;;;;;;5.90;1.73;;;;;;;-148.88;37.16;74038.88;4992108;28;20034;-88
2022/08/22 11:02:40;;;;;;;3.40;1.40;;;;;;;-148.88;37.33;74026.72;4992152;28;20019;-88
2022/08/22 11:05:35;;;;;;;3.53;1.40;;;;;;;-148.88;38.72;74042.94;4992176;28;20029;-87
2022/08/22 11:08:27;;;;;;;2.78;1.20;;;;;;;-148.88;36.31;74051.06;4997392;28;20401;-87
2022/08/22 11:11:01;;;;;;;4.95;1.35;;;;;;;-148.88;37.34;74044.97;4996534;28;20025;-88
2022/08/22 11:13:37;;;;;;;3.60;1.13;;;;;;;-148.88;35.89;74047.00;4996983;28;20030;-87
2022/08/22 11:16:21;;;;;;;3.05;1.15;;;;;;;-148.88;35.59;74049.03;4996571;28;20030;-87
2022/08/22 11:19:07;;;;;;;6.85;1.50;;;;;;;-148.88;35.15;74038.88;4996306;28;20026;-87
2022/08/22 11:22:08;;;;;;;2.95;1.38;;;;;;;-148.88;36.01;74026.72;4995889;28;20026;-87
2022/08/22 11:25:12;;;;;;;5.05;1.20;;;;;;;-148.88;35.47;73984.06;4996101;28;20026;-87
2022/08/22 11:27:46;;;;;;;2.78;1.15;;;;;;;-148.88;35.02;73929.25;4995407;28;20081;-87
2022/08/22 11:30:14;;;;;;;5.32;1.30;;;;;;;-148.88;34.00;73941.44;4995599;28;20541;-87
2022/08/22 11:33:01;;;;;;;3.85;1.55;;;;;;;-148.88;33.80;73880.53;4995542;28;20030;-88
2022/08/22 11:35:36;;;;;;;2.15;0.98;;;;;;;-148.88;35.20;73803.38;4995350;28;20454;-87
2022/08/22 11:38:23;;;;;;;5.05;1.30;;;;;;;-148.88;34.60;73764.81;4995445;28;20022;-88
2022/08/22 11:41:01;;;;;;;4.82;1.30;;;;;;;-148.88;32.13;73738.41;4995524;28;20027;-88
2022/08/22 11:43:51;;;;;;;3.85;1.20;;;;;;;-148.88;33.75;73722.16;4995220;28;20050;-87
2022/08/22 11:46:33;;;;;;;4.78;1.27;;;;;;;-148.88;32.31;73673.44;4995185;28;20025;-87
2022/08/22 11:49:13;;;;;;;5.47;1.42;;;;;;;-148.88;34.35;73718.09;4995330;28;20022;-87
2022/08/22 11:52:00;;;;;;;3.58;1.15;;;;;;;-148.88;32.58;73701.88;4996080;28;20026;-87
2022/08/22 11:54:34;;;;;;;5.30;1.77;;;;;;;-148.88;32.84;73746.53;4995141;28;20026;-87
2022/08/22 11:57:11;;;;;;;3.60;1.45;;;;;;;-148.88;32.17;73703.91;4996020;28;20023;-88
2022/08/22 12:00:03;;;;;;;4.38;1.63;;;;;;;-148.88;32.23;73779.00;4995310;28;20049;-87
2022/08/22 12:02:45;;;;;;;3.03;1.33;;;;;;;-148.88;32.08;73742.47;4995611;28;20469;-87
2022/08/22 12:05:31;;;;;;;4.22;1.42;;;;;;;-148.88;33.36;73758.72;4994816;28;20286;-87
2022/08/22 12:08:12;;;;;;;5.50;1.60;;;;;;;-148.88;32.24;73730.28;4994970;28;20023;-88
2022/08/22 12:10:51;;;;;;;3.90;1.60;;;;;;;-148.88;32.69;73683.59;4994887;28;20481;-87
2022/08/22 12:13:32;;;;;;;3.83;1.50;;;;;;;-148.88;31.63;73724.19;4995308;28;20375;-88
2022/08/22 12:16:14;;;;;;;3.38;1.45;;;;;;;-148.88;32.72;73734.34;4994733;28;20034;-87
2022/08/22 12:18:52;;;;;;;3.38;1.40;;;;;;;-148.88;32.98;73653.16;4994727;28;20022;-86
2022/08/22 12:21:42;;;;;;;4.97;1.40;;;;;;;-148.88;32.95;73606.44;4994696;28;20072;-89
2022/08/22 12:24:32;;;;;;;4.63;1.50;;;;;;;-148.88;31.62;73606.44;4995197;28;20022;-87
2022/08/22 12:27:26;;;;;;;4.32;1.58;;;;;;;-148.88;30.67;73647.06;4994641;28;20121;-87
2022/08/22 12:30:18;;;;;;;3.83;1.60;;;;;;;-148.88;32.14;73612.53;4994664;28;20425;-87
2022/08/22 12:33:12;;;;;;;3.88;1.48;;;;;;;-148.88;31.06;73722.16;4994967;28;20027;-87
2022/08/22 12:35:56;;;;;;;4.57;1.55;;;;;;;-148.88;32.00;73783.06;4994555;28;20040;-88
2022/08/22 12:38:40;;;;;;;5.07;1.45;;;;;;;-148.88;33.12;73734.34;4994823;28;20042;-89
2022/08/22 12:41:33;;;;;;;2.80;1.20;;;;;;;-148.88;32.66;73722.16;4995576;28;20101;-88
2022/08/22 12:44:13;;;;;;;2.58;1.27;;;;;;;-148.88;33.43;73705.94;4995770;28;20503;-88